AirNav   Phillips 66 Aviation Fuel
 
 507 users online  

8KY6 Caintuckee Airport
Independence, Kentucky, USA


FAA INFORMATION EFFECTIVE 20 JULY 2017

Location

FAA Identifier: 8KY6
Lat/Long: 38-56-07.9000N / 084-34-05.8000W
38-56.131667N / 084-34.096667W
38.9355278 / -84.5682778
(estimated)
Elevation: 930 ft. / 283 m (estimated)
From city: 4 miles W of INDEPENDENCE, KY
Time zone: UTC -4 (UTC -5 during Standard Time)
Zip code: 41051

Airport Operations

Airport use: Private use. Permission required prior to landing
Activation date: 09/2009
Control tower: no
ARTCC: INDIANAPOLIS CENTER
FSS: LOUISVILLE FLIGHT SERVICE STATION
Attendance: UNATNDD
Wind indicator: yes
Segmented circle: no

Airport Communications

WX ASOS at CVG (8 nm NW): PHONE 859-767-8210
WX ASOS at LUK (12 nm NE): PHONE 513-321-6291
WX AWOS-3 at K62 (16 nm SE): 123.825 (859-654-1345)
WX AWOS-3 at I69 (19 nm NE): 127.275 (513-732-6978)

Nearby radio navigation aids

VOR radial/distance  VOR name  Freq  Var
CVGr131/7.9CINCINNATI VORTAC117.3004W
FLMr329/21.0FALMOUTH VOR/DME117.0004W

 
NDB name  Hdg/Dist  Freq  Var  ID
CINCINNATI222/17.133504WLUK .-.. ..- -.-
SPORTYS247/18.524504WPWF .--. .-- ..-.
MADEIRA214/19.937904WMDE -- -.. .
HOOK FIELD193/34.323904WHKF .... -.- ..-.

Airport Services

Runway Information

Runway 10/28

Dimensions: 2000 x 65 ft. / 610 x 20 m
Surface: turf
RUNWAY 10  RUNWAY 28
Traffic pattern: leftright
Obstructions: none295 ft. tower, 3168 ft. from runway

Airport Ownership and Management from official FAA records

Ownership: Privately-owned
Owner: RODNEY SCOTT CAIN
445 BRISTOW ROAD
INDEPENDENCE, KY 41051
Phone 859-356-9306
Manager: DAVID A. CAIN
445 BRISTOW ROAD
INDEPENDENCE, KY 41051
Phone 859-912-9778

Airport Operational Statistics

Aircraft based on the field: 3
Single engine airplanes: 3
    

Instrument Procedures

There are no published instrument procedures at 8KY6.

Some nearby airports with instrument procedures:

KCVG - Cincinnati/Northern Kentucky International Airport (8 nm NW)
KLUK - Cincinnati Municipal Airport-Lunken Field (12 nm NE)
K62 - Gene Snyder Airport (16 nm SE)
I69 - Clermont County Airport (19 nm NE)
I67 - Cincinnati West Airport (22 nm NW)
 
Loc | Ops | Rwys | IFR | FBO | Links
Com | Nav | Svcs | Stats | Notes


 
Aerial photo
WARNING: Photo may not be current or correct
Aerial photo of 8KY6 (Caintuckee Airport)
Taken in the Summer of 2008

Do you have a better or more recent aerial photo of Caintuckee Airport that you would like to share? If so, please send us your photo.

 
Sectional chart

 
Airport distance calculator
Flying to Caintuckee Airport? Find the distance to fly.

From to 8KY6

Sunrise and sunset
Times for 24-Jul-2017
 Local
(UTC-4)
 Zulu
(UTC)
Morning civil twilight06:0310:03
Sunrise06:3310:33
Sunset20:5600:56
Evening civil twilight21:2701:27

Current date and time
Zulu (UTC)  24-Jul-2017 05:22:04
Local (UTC-4)  24-Jul-2017 01:22:04
 
METAR
KCVG 
8nm NW 
240452Z 26005KT 10SM CLR 22/21 A2987 RMK AO2 SLP105 T02220211 402940200
KLUK 
12nm NE 
240453Z AUTO 00000KT 10SM CLR 22/21 A2986 RMK AO2 SLP109 T02170211 403000206 TSNO
KI69 
19nm NE 
240456Z AUTO 00000KT 10SM CLR 22/20 A2988 RMK AO2 T02190200
TAF
KCVG 
8nm NW 
232057Z 2321/2424 24007KT P6SM SCT030 SCT200 FM232300 29006KT P6SM VCSH SCT025 BKN040 TEMPO 2323/2401 3SM SHRA BKN025 FM240700 23004KT 5SM BR SCT250 TEMPO 2408/2412 2SM BR FM241400 28006KT P6SM SCT030 FM241800 31008KT P6SM SCT040
KLUK 
12nm NE 
231925Z 2319/2418 23007KT P6SM VCSH SCT035 SCT080 FM240000 28005KT P6SM SCT080 FM240500 00000KT 3SM BR SCT250 FM240800 00000KT 2SM BR SCT250 TEMPO 2408/2412 1/2SM FG FM241400 28005KT P6SM SCT030
NOTAMs
Click for the latest NOTAMs
NOTAMs are issued by the DoD/FAA and will open in a separate window not controlled by AirNav.

 

 
 

Would you like to see your business listed on this page?

 If your business provides an interesting product or service to pilots, flight crews, aircraft, or users of the Caintuckee Airport, you should consider listing it here.  To start the listing process, click on the button below
 
Add a business
 

Other Pages about Caintuckee Airport

Update a link
 
Copyright © AirNav, LLC. All rights reserved. Privacy Policy  Contact